Flight Track Log - Related Links

Times and Time Zones

All times are in EDT time to prevent confusion due to time zone crossing. See the N9202U flight status page for this flight to view local times or setup timezone preferences in your user account.

Time Position Orientation Groundspeed Altitude Reporting Facility
EDT Latitude Longitude Course Direction KTS MPH feet Rate Location/Type
Tue 10:38:28 AM 35.5164 -97.6711 235° Southwest 104 120 2,400  Level Fort Center
Tue 10:39:29 AM 35.5436 -97.6839 339° North 105 121 3,000 606 Climbing Fort Center
Tue 10:40:17 AM 35.5644 -97.6917 343° North 98 113 3,500 550 Climbing Fort Center
Tue 10:41:18 AM 35.5872 -97.6842 15° North 90 104 4,000 469 Climbing Fort Center
Tue 10:42:25 AM 35.6083 -97.6639 38° Northeast 86 99 4,500 472 Climbing Fort Center
Tue 10:43:25 AM 35.6292 -97.6433 39° Northeast 90 104 5,000 261 Climbing Fort Center
Tue 10:44:20 AM 35.6500 -97.6206 42° Northeast 115 132 5,000  Level Fort Center
Tue 10:45:26 AM 35.6750 -97.5897 45° Northeast 117 135 5,000  Level Kansas Center
Tue 10:46:27 AM 35.7008 -97.5631 40° Northeast 121 139 5,000  Level Kansas Center
Tue 10:47:31 AM 35.7272 -97.5381 38° Northeast 120 138 5,000  Level Kansas Center
Tue 10:48:31 AM 35.7522 -97.5106 42° Northeast 121 139 5,000  Level Kansas Center
Tue 10:49:34 AM 35.7839 -97.4789 39° Northeast 121 139 5,000  Level Kansas Center
Tue 10:50:35 AM 35.8078 -97.4528 42° Northeast 118 136 5,000  Level Kansas Center
Tue 10:51:36 AM 35.8350 -97.4283 36° Northeast 120 138 5,000  Level Kansas Center
Tue 10:52:38 AM 35.8642 -97.4039 34° Northeast 125 144 5,000  Level Kansas Center
Tue 10:53:42 AM 35.8894 -97.3775 40° Northeast 120 138 5,000  Level Kansas Center
Tue 10:54:42 AM 35.9167 -97.3525 37° Northeast 122 140 5,000  Level Kansas Center
Tue 10:55:46 AM 35.9483 -97.3228 37° Northeast 120 138 5,000  Level Kansas Center
Tue 10:56:47 AM 35.9736 -97.2953 41° Northeast 121 139 5,000  Level Kansas Center
Tue 10:57:50 AM 36.0000 -97.2700 38° Northeast 120 138 5,000 -242 Level Kansas Center
Tue 10:58:51 AM 35.9886 -97.2431 118° Southeast 107 123 4,500 -639 Descending Kansas Center
Tue 10:59:52 AM 35.9700 -97.2189 134° Southeast 97 112 3,700 -720 Descending Kansas Center
Tue 11:00:56 AM 35.9550 -97.1869 120° Southeast 101 116 3,000 -336 Descending Kansas Center
Tue 11:01:57 AM 35.9469 -97.1492 105° East 98 113 3,000  Level Kansas Center
Tue 11:02:58 AM 35.9425 -97.1183 100° East 95 109 3,000 -192 Level Kansas Center
Tue 11:04:02 AM 35.9697 -97.1022 26° Northeast 107 123 2,600 -192 Descending Kansas Center
Tue 11:05:03 AM 36.0042 -97.0978 North 118 136 2,600  Level Kansas Center
Tue 11:06:07 AM 36.0383 -97.0961 North 121 139 2,600  Level Kansas Center
Tue 11:07:07 AM 36.0717 -97.0944 North 121 139 2,600 -390 Level Kansas Center
Tue 11:08:10 AM 36.1061 -97.0928 North 112 129 1,800 -528 Descending Kansas Center
Tue 11:09:12 AM 36.1322 -97.0878 North 107 123 1,500 -146 Descending Kansas Center
Tue 11:10:13 AM 36.1492 -97.0658 46° Northeast 108 124 1,500  Level Kansas Center
Tue 11:11:17 AM 36.1736 -97.0636 North 103 119 1,500  Level Kansas Center
Tue 11:13:00 AM 36.1500 -97.0833 238° Southwest  Level FlightAware
Tue 11:20:00 AM 36.1614 -97.0859 238° Southwest  Level Estimated

Login

Don't have an account? Register now (free) for customized features, flight alerts, and more!